createdAt,value
2018-05-27T00:00:10.051Z,48.10
2018-05-27T00:00:42.081Z,48.20
2018-05-27T00:01:14.889Z,48.40
2018-05-27T00:01:46.911Z,48.30
2018-05-27T00:02:18.976Z,48.10
2018-05-27T00:02:50.985Z,48.00
2018-05-27T00:03:23.010Z,48.10
2018-05-27T00:03:55.048Z,48.10
2018-05-27T00:04:27.075Z,48.20
2018-05-27T00:04:59.118Z,48.20
2018-05-27T00:05:31.138Z,48.10
2018-05-27T00:06:03.169Z,48.10
2018-05-27T00:06:35.194Z,48.10
2018-05-27T00:07:07.215Z,48.20
2018-05-27T00:07:39.249Z,48.20
2018-05-27T00:08:12.079Z,48.60
2018-05-27T00:08:44.108Z,48.10
2018-05-27T00:09:16.146Z,48.20
2018-05-27T00:09:48.180Z,48.10
2018-05-27T00:10:20.991Z,48.10
2018-05-27T00:10:53.025Z,48.90
2018-05-27T00:11:25.794Z,48.20
2018-05-27T00:11:57.829Z,48.10
2018-05-27T00:12:30.619Z,48.20
2018-05-27T00:13:02.634Z,48.10
2018-05-27T00:13:35.442Z,48.20
2018-05-27T00:14:07.464Z,48.20
2018-05-27T00:14:40.274Z,48.30
2018-05-27T00:15:12.311Z,48.30
2018-05-27T00:15:44.338Z,48.30
2018-05-27T00:16:17.137Z,48.30
2018-05-27T00:16:49.166Z,48.30
2018-05-27T00:17:21.939Z,48.20
2018-05-27T00:17:54.725Z,48.30
2018-05-27T00:18:26.742Z,48.20
2018-05-27T00:18:59.543Z,48.20
2018-05-27T00:19:31.570Z,48.20
2018-05-27T00:20:04.378Z,48.30
2018-05-27T00:20:36.399Z,48.30
2018-05-27T00:21:08.419Z,48.30
2018-05-27T00:21:40.438Z,48.30
2018-05-27T00:22:12.471Z,48.40
2018-05-27T00:22:44.499Z,48.40
2018-05-27T00:23:16.544Z,48.40
2018-05-27T00:23:49.325Z,48.40
2018-05-27T00:24:21.369Z,48.40
2018-05-27T00:24:53.413Z,48.30
2018-05-27T00:25:26.196Z,48.30
2018-05-27T00:25:58.232Z,48.30
2018-05-27T00:26:31.027Z,48.30
2018-05-27T00:27:03.058Z,48.20
2018-05-27T00:27:35.845Z,48.30
2018-05-27T00:28:07.885Z,48.30
2018-05-27T00:28:40.665Z,48.30
2018-05-27T00:29:12.695Z,48.20
2018-05-27T00:29:45.480Z,48.20
2018-05-27T00:30:17.515Z,48.20
2018-05-27T00:30:50.302Z,48.30
2018-05-27T00:31:22.337Z,48.30
2018-05-27T00:31:54.721Z,48.30
2018-05-27T00:32:26.746Z,48.30
2018-05-27T00:32:59.540Z,48.30
2018-05-27T00:33:31.570Z,48.30
2018-05-27T00:34:04.363Z,48.30
2018-05-27T00:34:36.402Z,48.30
2018-05-27T00:35:08.455Z,48.30
2018-05-27T00:35:40.485Z,48.30
2018-05-27T00:36:13.378Z,48.40
2018-05-27T00:36:46.141Z,48.40
2018-05-27T00:37:18.167Z,48.40
2018-05-27T00:37:50.965Z,48.30
2018-05-27T00:38:23.020Z,48.30
2018-05-27T00:38:55.045Z,48.30
2018-05-27T00:39:27.866Z,48.30
2018-05-27T00:39:59.889Z,48.30
2018-05-27T00:40:31.899Z,48.20
2018-05-27T00:41:03.931Z,48.20
2018-05-27T00:41:35.964Z,48.30
2018-05-27T00:42:07.981Z,48.30
2018-05-27T00:42:40.018Z,48.20
2018-05-27T00:43:12.805Z,48.30
2018-05-27T00:43:44.850Z,48.30
2018-05-27T00:44:17.659Z,48.30
2018-05-27T00:44:49.679Z,48.20
2018-05-27T00:45:21.714Z,48.30
2018-05-27T00:45:54.511Z,48.40
2018-05-27T00:46:26.530Z,48.40
2018-05-27T00:46:59.331Z,48.40
2018-05-27T00:47:31.370Z,48.30
2018-05-27T00:48:03.390Z,48.40
2018-05-27T00:48:35.420Z,48.40
2018-05-27T00:49:07.474Z,48.30
2018-05-27T00:49:39.487Z,48.30
2018-05-27T00:50:11.520Z,48.40
2018-05-27T00:50:43.556Z,48.40
2018-05-27T00:51:16.349Z,48.50
2018-05-27T00:51:48.380Z,48.40
2018-05-27T00:52:21.170Z,48.40
2018-05-27T00:52:53.192Z,48.40
2018-05-27T00:53:26.019Z,48.30
2018-05-27T00:53:58.064Z,48.30
2018-05-27T00:54:30.078Z,48.30
2018-05-27T00:55:02.109Z,48.50
2018-05-27T00:55:34.141Z,48.30
2018-05-27T00:56:06.154Z,48.10
2018-05-27T00:56:38.183Z,48.20
2018-05-27T00:57:10.227Z,48.40
2018-05-27T00:57:43.015Z,48.10
2018-05-27T00:58:15.142Z,48.00
2018-05-27T00:58:47.182Z,48.10
2018-05-27T00:59:19.219Z,48.10
2018-05-27T00:59:51.247Z,48.20
2018-05-27T01:00:23.302Z,48.20
2018-05-27T01:00:55.326Z,48.30
2018-05-27T01:01:27.355Z,48.30
2018-05-27T01:02:00.163Z,48.40
2018-05-27T01:02:32.186Z,48.40
2018-05-27T01:03:04.338Z,48.40
2018-05-27T01:03:36.290Z,48.30
2018-05-27T01:04:08.328Z,48.40
2018-05-27T01:04:40.354Z,48.40
2018-05-27T01:05:12.414Z,48.50
2018-05-27T01:05:44.419Z,48.60
2018-05-27T01:06:16.444Z,48.50
2018-05-27T01:06:48.474Z,48.50
2018-05-27T01:07:20.514Z,48.50
2018-05-27T01:07:52.541Z,48.50
2018-05-27T01:08:24.590Z,48.40
2018-05-27T01:08:56.641Z,48.50
2018-05-27T01:09:28.664Z,48.40
2018-05-27T01:10:00.695Z,48.40
2018-05-27T01:10:33.488Z,48.50
2018-05-27T01:11:05.515Z,48.40
2018-05-27T01:11:38.298Z,48.50
2018-05-27T01:12:10.346Z,48.40
2018-05-27T01:12:42.371Z,48.30
2018-05-27T01:13:14.430Z,48.30
2018-05-27T01:13:47.247Z,48.20
2018-05-27T01:14:19.266Z,48.10
2018-05-27T01:14:51.326Z,48.10
2018-05-27T01:15:24.088Z,48.20
2018-05-27T01:15:56.173Z,48.10
2018-05-27T01:16:28.197Z,48.20
2018-05-27T01:17:00.222Z,48.30
2018-05-27T01:17:33.047Z,48.30
2018-05-27T01:18:05.064Z,48.30
2018-05-27T01:18:37.147Z,48.30
2018-05-27T01:19:09.175Z,48.30
2018-05-27T01:19:41.212Z,48.40
2018-05-27T01:20:14.003Z,48.40
2018-05-27T01:20:46.184Z,48.30
2018-05-27T01:21:18.208Z,48.40
2018-05-27T01:21:50.227Z,48.30
2018-05-27T01:22:23.026Z,48.40
2018-05-27T01:22:55.066Z,48.30
2018-05-27T01:23:27.090Z,48.30
2018-05-27T01:23:59.131Z,48.30
2018-05-27T01:24:31.135Z,48.30
2018-05-27T01:25:03.158Z,48.20
2018-05-27T01:25:35.993Z,48.30
2018-05-27T01:26:07.984Z,48.30
2018-05-27T01:26:40.022Z,48.20
2018-05-27T01:27:12.815Z,48.30
2018-05-27T01:27:44.880Z,48.30
2018-05-27T01:28:16.901Z,48.30
2018-05-27T01:28:49.701Z,48.30
2018-05-27T01:29:21.719Z,48.30
2018-05-27T01:29:54.515Z,48.20
2018-05-27T01:30:26.552Z,48.20
2018-05-27T01:30:59.369Z,48.30
2018-05-27T01:31:31.382Z,48.30
2018-05-27T01:32:03.403Z,48.30
2018-05-27T01:32:36.212Z,48.20
2018-05-27T01:33:08.263Z,48.20
2018-05-27T01:33:40.275Z,48.30
2018-05-27T01:34:13.091Z,48.30
2018-05-27T01:34:45.116Z,48.30
2018-05-27T01:35:17.898Z,48.20
2018-05-27T01:35:49.920Z,48.20
2018-05-27T01:36:22.722Z,48.30
2018-05-27T01:36:54.770Z,48.20
2018-05-27T01:37:26.812Z,48.10
2018-05-27T01:37:58.926Z,48.10
2018-05-27T01:38:30.923Z,48.10
2018-05-27T01:39:02.956Z,48.10
2018-05-27T01:39:35.746Z,48.20
2018-05-27T01:40:07.779Z,48.20
2018-05-27T01:40:39.816Z,48.20
2018-05-27T01:41:12.595Z,48.10
2018-05-27T01:41:44.630Z,48.10
2018-05-27T01:42:17.419Z,48.20
2018-05-27T01:42:49.447Z,48.20
2018-05-27T01:43:21.486Z,48.20
2018-05-27T01:43:53.523Z,48.10
2018-05-27T01:44:25.568Z,48.10
2018-05-27T01:44:57.589Z,48.10
2018-05-27T01:45:29.611Z,48.10
2018-05-27T01:46:02.405Z,48.30
2018-05-27T01:46:34.440Z,48.20
2018-05-27T01:47:07.238Z,48.30
2018-05-27T01:47:39.263Z,48.20
2018-05-27T01:48:12.056Z,48.30
2018-05-27T01:48:44.081Z,48.30
2018-05-27T01:49:16.887Z,48.10
2018-05-27T01:49:48.918Z,48.10
2018-05-27T01:50:20.941Z,48.10
2018-05-27T01:50:53.730Z,48.10
2018-05-27T01:51:25.761Z,48.10
2018-05-27T01:51:57.796Z,48.00
2018-05-27T01:52:29.824Z,48.70
2018-05-27T01:53:01.846Z,47.90
2018-05-27T01:53:33.886Z,47.80
2018-05-27T01:54:05.934Z,48.10
2018-05-27T01:54:38.716Z,48.00
2018-05-27T01:55:10.738Z,48.00
2018-05-27T01:55:43.536Z,47.90
2018-05-27T01:56:15.565Z,47.90
2018-05-27T01:56:48.340Z,47.90
2018-05-27T01:57:21.138Z,47.80
2018-05-27T01:57:53.162Z,47.80
2018-05-27T01:58:25.227Z,48.00
2018-05-27T01:58:57.987Z,47.90
2018-05-27T01:59:30.046Z,47.90
2018-05-27T02:00:02.107Z,47.80
2018-05-27T02:00:34.147Z,47.90
2018-05-27T02:01:06.174Z,47.80
2018-05-27T02:01:38.967Z,47.90
2018-05-27T02:02:11.019Z,47.90
2018-05-27T02:02:43.054Z,47.90
2018-05-27T02:03:15.092Z,47.80
2018-05-27T02:03:47.882Z,47.80
2018-05-27T02:04:19.903Z,47.80
2018-05-27T02:04:51.925Z,47.80
2018-05-27T02:05:23.948Z,48.60
2018-05-27T02:05:55.981Z,47.80
2018-05-27T02:06:28.760Z,47.90
2018-05-27T02:07:00.819Z,47.80
2018-05-27T02:07:32.845Z,47.80
2018-05-27T02:08:05.633Z,47.90
2018-05-27T02:08:37.659Z,47.90
2018-05-27T02:09:10.451Z,48.00
2018-05-27T02:09:42.479Z,47.90
2018-05-27T02:10:14.499Z,47.80
2018-05-27T02:10:46.548Z,47.90
2018-05-27T02:11:18.556Z,47.90
2018-05-27T02:11:50.582Z,47.90
2018-05-27T02:12:23.368Z,48.00
2018-05-27T02:12:55.420Z,48.00
2018-05-27T02:13:27.415Z,48.00
2018-05-27T02:13:59.471Z,47.80
2018-05-27T02:14:31.500Z,48.00
2018-05-27T02:15:03.519Z,48.70
2018-05-27T02:15:35.549Z,47.90
2018-05-27T02:16:07.576Z,48.00
2018-05-27T02:16:39.635Z,48.10
2018-05-27T02:17:11.630Z,48.00
2018-05-27T02:17:43.665Z,48.00
2018-05-27T02:18:15.676Z,48.00
2018-05-27T02:18:47.711Z,48.00
2018-05-27T02:19:19.728Z,47.90
2018-05-27T02:19:52.514Z,48.00
2018-05-27T02:20:24.535Z,47.90
2018-05-27T02:20:57.348Z,48.00
2018-05-27T02:21:29.371Z,47.90
2018-05-27T02:22:02.167Z,48.00
2018-05-27T02:22:34.191Z,48.00
2018-05-27T02:23:06.972Z,47.90
2018-05-27T02:23:39.000Z,47.80
2018-05-27T02:24:11.012Z,47.80
2018-05-27T02:24:43.036Z,47.80
2018-05-27T02:25:15.062Z,47.80
2018-05-27T02:25:47.084Z,47.80
2018-05-27T02:26:19.102Z,47.90
2018-05-27T02:26:51.135Z,47.80
2018-05-27T02:27:23.171Z,47.80
2018-05-27T02:27:55.198Z,47.80
2018-05-27T02:28:27.219Z,47.80
2018-05-27T02:28:59.290Z,47.90
2018-05-27T02:29:31.293Z,47.90
2018-05-27T02:30:03.330Z,47.80
2018-05-27T02:30:35.365Z,47.90
2018-05-27T02:31:08.160Z,47.80
2018-05-27T02:31:40.182Z,47.90
2018-05-27T02:32:12.980Z,48.60
2018-05-27T02:32:45.008Z,47.70
2018-05-27T02:33:17.784Z,48.00
2018-05-27T02:33:49.816Z,47.90
2018-05-27T02:34:22.606Z,47.70
2018-05-27T02:34:54.652Z,47.60
2018-05-27T02:35:27.427Z,47.80
2018-05-27T02:35:59.460Z,47.70
2018-05-27T02:36:32.240Z,47.80
2018-05-27T02:37:04.265Z,47.70
2018-05-27T02:37:36.318Z,47.70
2018-05-27T02:38:08.363Z,48.60
2018-05-27T02:38:40.385Z,47.70
2018-05-27T02:39:12.390Z,47.80
2018-05-27T02:39:45.201Z,47.80
2018-05-27T02:40:17.220Z,47.70
2018-05-27T02:40:49.242Z,47.70
2018-05-27T02:41:21.282Z,47.80
2018-05-27T02:41:53.298Z,47.70
2018-05-27T02:42:25.429Z,47.70
2018-05-27T02:42:58.200Z,47.70
2018-05-27T02:43:30.212Z,47.60
2018-05-27T02:44:02.269Z,47.70
2018-05-27T02:44:34.290Z,47.70
2018-05-27T02:45:06.366Z,47.80
2018-05-27T02:45:38.399Z,47.70
2018-05-27T02:46:10.462Z,47.70
2018-05-27T02:46:42.481Z,47.80
2018-05-27T02:47:14.518Z,47.90
2018-05-27T02:47:46.563Z,47.70
2018-05-27T02:48:18.626Z,47.70
2018-05-27T02:48:50.647Z,47.80
2018-05-27T02:49:23.431Z,47.80
2018-05-27T02:49:55.518Z,47.70
2018-05-27T02:50:27.535Z,47.80
2018-05-27T02:50:59.560Z,47.80
2018-05-27T02:51:32.385Z,47.80
2018-05-27T02:52:04.408Z,47.80
2018-05-27T02:52:36.474Z,47.70
2018-05-27T02:53:08.512Z,47.70
2018-05-27T02:53:41.296Z,47.90
2018-05-27T02:54:13.311Z,47.80
2018-05-27T02:54:46.133Z,47.80
2018-05-27T02:55:18.150Z,47.70
2018-05-27T02:55:50.168Z,47.80
2018-05-27T02:56:22.194Z,47.70
2018-05-27T02:56:54.219Z,47.80
2018-05-27T02:57:26.251Z,47.70
2018-05-27T02:57:58.276Z,47.80
2018-05-27T02:58:30.308Z,47.80
2018-05-27T02:59:02.334Z,47.50
2018-05-27T02:59:34.350Z,47.80
2018-05-27T03:00:07.154Z,47.80
2018-05-27T03:00:39.170Z,47.80
2018-05-27T03:01:11.195Z,47.80
2018-05-27T03:01:43.271Z,47.80
2018-05-27T03:02:16.055Z,47.80
2018-05-27T03:02:48.088Z,47.80
2018-05-27T03:03:20.890Z,47.90
2018-05-27T03:03:52.906Z,47.70
2018-05-27T03:04:25.688Z,47.90
2018-05-27T03:04:57.720Z,47.70
2018-05-27T03:05:30.510Z,47.80
2018-05-27T03:06:02.569Z,47.60
2018-05-27T03:06:35.347Z,47.60
2018-05-27T03:07:07.388Z,47.60
2018-05-27T03:07:39.419Z,47.80
2018-05-27T03:08:12.202Z,47.80
2018-05-27T03:08:44.231Z,47.80
2018-05-27T03:09:17.028Z,47.80
2018-05-27T03:09:49.062Z,47.60
2018-05-27T03:10:21.851Z,47.80
2018-05-27T03:10:53.875Z,47.70
2018-05-27T03:11:26.687Z,47.70
2018-05-27T03:11:58.724Z,47.70
2018-05-27T03:12:30.762Z,47.70
2018-05-27T03:13:02.806Z,47.80
2018-05-27T03:13:35.593Z,47.70
2018-05-27T03:14:07.636Z,47.60
2018-05-27T03:14:40.416Z,47.60
2018-05-27T03:15:12.431Z,47.60
2018-05-27T03:15:45.228Z,47.70
2018-05-27T03:16:17.243Z,47.60
2018-05-27T03:16:49.263Z,47.70
2018-05-27T03:17:21.300Z,47.70
2018-05-27T03:17:53.336Z,47.70
2018-05-27T03:18:25.358Z,47.70
2018-05-27T03:18:58.150Z,47.80
2018-05-27T03:19:30.176Z,47.80
2018-05-27T03:20:03.014Z,47.70
2018-05-27T03:20:35.025Z,47.70
2018-05-27T03:21:07.053Z,47.70
2018-05-27T03:21:39.848Z,47.70
2018-05-27T03:22:11.881Z,47.70
2018-05-27T03:22:44.689Z,47.70
2018-05-27T03:23:16.691Z,47.70
2018-05-27T03:23:49.488Z,47.90
2018-05-27T03:24:21.512Z,47.80
2018-05-27T03:24:54.298Z,47.80
2018-05-27T03:25:26.323Z,47.70
2018-05-27T03:25:58.355Z,47.60
2018-05-27T03:26:30.394Z,47.70
2018-05-27T03:27:02.423Z,47.70
2018-05-27T03:27:34.444Z,47.70
2018-05-27T03:28:07.235Z,48.80
2018-05-27T03:28:39.272Z,47.70
2018-05-27T03:29:12.064Z,47.70
2018-05-27T03:29:44.083Z,47.70
2018-05-27T03:30:16.168Z,47.70
2018-05-27T03:30:48.229Z,47.60
2018-05-27T03:31:20.280Z,47.70
2018-05-27T03:31:52.286Z,47.50
2018-05-27T03:32:25.111Z,47.60
2018-05-27T03:32:57.134Z,47.60
2018-05-27T03:33:29.171Z,48.40
2018-05-27T03:34:01.252Z,48.30
2018-05-27T03:34:33.284Z,47.60
2018-05-27T03:35:05.315Z,47.60
2018-05-27T03:35:38.110Z,47.70
2018-05-27T03:36:10.148Z,47.60
2018-05-27T03:36:42.961Z,47.70
2018-05-27T03:37:14.976Z,47.70
2018-05-27T03:37:47.071Z,47.60
2018-05-27T03:38:19.450Z,47.60
2018-05-27T03:38:51.523Z,47.70
2018-05-27T03:39:24.602Z,47.60
2018-05-27T03:39:56.824Z,47.60
2018-05-27T03:40:28.895Z,47.70
2018-05-27T03:41:02.214Z,47.70
2018-05-27T03:41:34.407Z,47.60
2018-05-27T03:42:06.393Z,47.60
2018-05-27T03:42:38.419Z,47.60
2018-05-27T03:43:10.494Z,47.60
2018-05-27T03:43:43.314Z,47.60
2018-05-27T03:44:15.305Z,47.60
2018-05-27T03:44:48.091Z,47.60
2018-05-27T03:45:20.163Z,47.50
2018-05-27T03:45:52.186Z,47.60
2018-05-27T03:46:24.975Z,47.50
2018-05-27T03:46:56.991Z,47.50
2018-05-27T03:47:29.796Z,47.50
2018-05-27T03:48:01.813Z,47.40
2018-05-27T03:48:34.626Z,47.50
2018-05-27T03:49:06.651Z,47.50
2018-05-27T03:49:38.696Z,47.40
2018-05-27T03:50:11.474Z,47.50
2018-05-27T03:50:43.509Z,47.50
2018-05-27T03:51:16.286Z,47.50
2018-05-27T03:51:48.316Z,47.40
2018-05-27T03:52:20.348Z,47.50
2018-05-27T03:52:52.376Z,48.20
2018-05-27T03:53:24.410Z,47.30
2018-05-27T03:53:56.427Z,47.40
2018-05-27T03:54:29.225Z,47.50
2018-05-27T03:55:01.279Z,47.50
2018-05-27T03:55:33.299Z,47.40
2018-05-27T03:56:06.095Z,47.40
2018-05-27T03:56:38.129Z,47.40
2018-05-27T03:57:10.908Z,47.40
2018-05-27T03:57:42.943Z,47.30
2018-05-27T03:58:14.960Z,47.40
2018-05-27T03:58:47.101Z,48.30
2018-05-27T03:59:19.114Z,47.40
2018-05-27T03:59:51.143Z,47.50
2018-05-27T04:00:23.978Z,47.50
2018-05-27T04:00:55.991Z,47.50
2018-05-27T04:01:28.085Z,47.50
2018-05-27T04:02:00.130Z,47.60
2018-05-27T04:02:32.150Z,47.50
2018-05-27T04:03:04.186Z,47.40
2018-05-27T04:03:36.271Z,47.30
2018-05-27T04:04:08.286Z,47.30
2018-05-27T04:04:41.067Z,47.30
2018-05-27T04:05:13.122Z,47.30
2018-05-27T04:05:45.161Z,47.20
2018-05-27T04:06:17.932Z,47.30
2018-05-27T04:06:49.949Z,47.20
2018-05-27T04:07:22.003Z,47.20
2018-05-27T04:07:54.047Z,47.30
2018-05-27T04:08:26.082Z,47.30
2018-05-27T04:08:58.118Z,47.20
2018-05-27T04:09:30.150Z,47.30
2018-05-27T04:10:02.206Z,47.30
2018-05-27T04:10:34.224Z,47.30
2018-05-27T04:11:07.026Z,47.40
2018-05-27T04:11:39.059Z,47.40
2018-05-27T04:12:11.859Z,47.30
2018-05-27T04:12:43.907Z,47.30
2018-05-27T04:13:15.920Z,47.30
2018-05-27T04:13:48.731Z,47.40
2018-05-27T04:14:20.756Z,47.30
2018-05-27T04:14:52.792Z,47.30
2018-05-27T04:15:25.619Z,47.40
2018-05-27T04:15:57.636Z,47.30
2018-05-27T04:16:29.667Z,47.40
2018-05-27T04:17:02.445Z,47.30
2018-05-27T04:17:34.474Z,47.30
2018-05-27T04:18:06.493Z,47.30
2018-05-27T04:18:38.540Z,47.30
2018-05-27T04:19:10.561Z,47.30
2018-05-27T04:19:42.595Z,47.30
2018-05-27T04:20:15.380Z,47.30
2018-05-27T04:20:47.399Z,47.30
2018-05-27T04:21:19.428Z,47.20
2018-05-27T04:21:51.465Z,47.30
2018-05-27T04:22:23.535Z,47.20
2018-05-27T04:22:55.544Z,47.30
2018-05-27T04:23:27.603Z,47.20
2018-05-27T04:23:59.626Z,47.30
2018-05-27T04:24:31.662Z,47.20
2018-05-27T04:25:04.446Z,47.30
2018-05-27T04:25:37.233Z,47.10
2018-05-27T04:26:09.261Z,47.10
2018-05-27T04:26:42.042Z,47.20
2018-05-27T04:27:14.074Z,47.10
2018-05-27T04:27:46.080Z,47.20
2018-05-27T04:28:18.128Z,47.20
2018-05-27T04:28:50.143Z,47.20
2018-05-27T04:29:22.168Z,47.10
2018-05-27T04:29:54.191Z,47.10
2018-05-27T04:30:26.223Z,47.10
2018-05-27T04:30:58.247Z,47.10
2018-05-27T04:31:31.033Z,46.90
2018-05-27T04:32:03.042Z,46.90
2018-05-27T04:32:35.883Z,47.00
2018-05-27T04:33:07.938Z,47.00
2018-05-27T04:33:39.949Z,47.00
2018-05-27T04:34:11.977Z,47.00
2018-05-27T04:34:44.795Z,46.90
2018-05-27T04:35:16.785Z,46.90
2018-05-27T04:35:49.596Z,46.30
2018-05-27T04:36:21.627Z,46.90
2018-05-27T04:36:54.405Z,47.00
2018-05-27T04:37:26.445Z,47.00
2018-05-27T04:37:59.227Z,47.00
2018-05-27T04:38:31.250Z,47.00
2018-05-27T04:39:04.052Z,47.00
2018-05-27T04:39:36.078Z,47.00
2018-05-27T04:40:08.867Z,47.10
2018-05-27T04:40:40.887Z,47.00
2018-05-27T04:41:13.675Z,47.00
2018-05-27T04:41:46.466Z,47.00
2018-05-27T04:42:18.500Z,47.00
2018-05-27T04:42:50.519Z,47.00
2018-05-27T04:43:22.563Z,47.00
2018-05-27T04:43:54.590Z,47.40
2018-05-27T04:44:26.624Z,47.00
2018-05-27T04:44:58.651Z,47.00
2018-05-27T04:45:30.714Z,47.00
2018-05-27T04:46:02.758Z,47.00
2018-05-27T04:46:34.791Z,47.00
2018-05-27T04:47:06.825Z,47.00
2018-05-27T04:47:38.854Z,47.70
2018-05-27T04:48:10.874Z,47.00
2018-05-27T04:48:42.899Z,46.90
2018-05-27T04:49:15.707Z,46.90
2018-05-27T04:49:47.737Z,46.80
2018-05-27T04:50:19.767Z,46.80
2018-05-27T04:50:52.548Z,47.00
2018-05-27T04:51:24.588Z,46.90
2018-05-27T04:51:57.408Z,46.80
2018-05-27T04:52:29.411Z,46.80
2018-05-27T04:53:02.226Z,46.80
2018-05-27T04:53:34.243Z,46.80
2018-05-27T04:54:06.271Z,46.80
2018-05-27T04:54:38.299Z,46.90
2018-05-27T04:55:10.324Z,46.80
2018-05-27T04:55:42.342Z,46.80
2018-05-27T04:56:14.395Z,46.80
2018-05-27T04:56:46.447Z,46.80
2018-05-27T04:57:19.210Z,46.90
2018-05-27T04:57:52.025Z,46.90
2018-05-27T04:58:24.052Z,46.80
2018-05-27T04:58:56.075Z,46.90
2018-05-27T04:59:28.905Z,46.90
2018-05-27T05:00:00.919Z,46.80
2018-05-27T05:00:32.951Z,46.90
2018-05-27T05:01:05.741Z,46.80
2018-05-27T05:01:37.766Z,46.80
2018-05-27T05:02:10.564Z,46.90
2018-05-27T05:02:42.591Z,46.80
2018-05-27T05:03:15.401Z,47.00
2018-05-27T05:03:47.428Z,46.80
2018-05-27T05:04:19.456Z,46.70
2018-05-27T05:04:52.275Z,46.80
2018-05-27T05:05:24.314Z,46.70
2018-05-27T05:05:56.322Z,46.80
2018-05-27T05:06:29.114Z,46.80
2018-05-27T05:07:01.154Z,46.80
2018-05-27T05:07:33.932Z,46.80
2018-05-27T05:08:05.967Z,46.70
2018-05-27T05:08:37.981Z,46.70
2018-05-27T05:09:10.006Z,46.80
2018-05-27T05:09:42.036Z,46.70
2018-05-27T05:10:14.071Z,46.70
2018-05-27T05:10:46.916Z,46.70
2018-05-27T05:11:18.950Z,46.60
2018-05-27T05:11:50.973Z,46.70
2018-05-27T05:12:23.003Z,46.80
2018-05-27T05:12:55.782Z,46.80
2018-05-27T05:13:27.863Z,46.70
2018-05-27T05:13:59.874Z,46.80
2018-05-27T05:14:32.674Z,46.70
2018-05-27T05:15:04.727Z,46.70
2018-05-27T05:15:36.766Z,46.70
2018-05-27T05:16:08.787Z,46.70
2018-05-27T05:16:41.574Z,46.70
2018-05-27T05:17:13.604Z,46.60
2018-05-27T05:17:45.620Z,46.60
2018-05-27T05:18:17.651Z,46.50
2018-05-27T05:18:49.667Z,46.50
2018-05-27T05:19:22.462Z,46.50
2018-05-27T05:19:54.483Z,46.50
2018-05-27T05:20:27.282Z,46.40
2018-05-27T05:20:59.310Z,46.30
2018-05-27T05:21:31.362Z,46.30
2018-05-27T05:22:04.188Z,46.10
2018-05-27T05:22:36.208Z,46.10
2018-05-27T05:23:08.266Z,46.10
2018-05-27T05:23:40.276Z,46.20
2018-05-27T05:24:13.072Z,46.20
2018-05-27T05:24:45.113Z,46.10
2018-05-27T05:25:17.897Z,46.00
2018-05-27T05:25:49.958Z,46.00
2018-05-27T05:26:22.000Z,45.90
2018-05-27T05:26:54.022Z,46.00
2018-05-27T05:27:26.856Z,46.00
2018-05-27T05:27:58.872Z,46.00
2018-05-27T05:28:30.900Z,46.00
2018-05-27T05:29:03.692Z,46.10
2018-05-27T05:29:35.711Z,46.10
2018-05-27T05:30:08.523Z,46.20
2018-05-27T05:30:40.558Z,46.10
2018-05-27T05:31:12.574Z,46.20
2018-05-27T05:31:44.588Z,46.00
2018-05-27T05:32:16.632Z,46.00
2018-05-27T05:32:48.658Z,46.00
2018-05-27T05:33:20.698Z,46.00
2018-05-27T05:33:53.482Z,46.10
2018-05-27T05:34:25.508Z,46.00
2018-05-27T05:34:58.306Z,46.00
2018-05-27T05:35:30.339Z,45.90
2018-05-27T05:36:03.124Z,45.90
2018-05-27T05:36:35.135Z,45.90
2018-05-27T05:37:07.202Z,45.90
2018-05-27T05:37:39.195Z,45.90
2018-05-27T05:38:11.235Z,46.00
2018-05-27T05:38:43.252Z,46.00
2018-05-27T05:39:16.053Z,45.90
2018-05-27T05:39:48.074Z,45.90
2018-05-27T05:40:20.871Z,46.00
2018-05-27T05:40:52.892Z,45.90
2018-05-27T05:41:25.664Z,46.00
2018-05-27T05:41:58.457Z,46.00
2018-05-27T05:42:30.479Z,45.90
2018-05-27T05:43:03.273Z,46.00
2018-05-27T05:43:35.299Z,45.90
2018-05-27T05:44:08.095Z,45.40
2018-05-27T05:44:40.145Z,46.00
2018-05-27T05:45:12.162Z,46.00
2018-05-27T05:45:44.985Z,46.50
2018-05-27T05:46:16.976Z,45.90
2018-05-27T05:46:49.009Z,45.90
2018-05-27T05:47:21.048Z,46.10
2018-05-27T05:47:53.076Z,46.00
2018-05-27T05:48:25.095Z,45.90
2018-05-27T05:48:57.882Z,46.00
2018-05-27T05:49:29.945Z,46.00
2018-05-27T05:50:01.974Z,46.00
2018-05-27T05:50:34.751Z,46.00
2018-05-27T05:51:06.772Z,46.00
2018-05-27T05:51:38.864Z,46.00
2018-05-27T05:52:10.935Z,46.00
2018-05-27T05:52:42.941Z,46.00
2018-05-27T05:53:15.779Z,46.10
2018-05-27T05:53:47.793Z,46.00
2018-05-27T05:54:19.882Z,46.00
2018-05-27T05:54:51.883Z,46.00
2018-05-27T05:55:24.666Z,46.00
2018-05-27T05:55:56.718Z,46.00
2018-05-27T05:56:28.741Z,45.90
2018-05-27T05:57:01.535Z,46.00
2018-05-27T05:57:33.599Z,46.00
2018-05-27T05:58:05.617Z,46.00
2018-05-27T05:58:38.395Z,45.90
2018-05-27T05:59:11.187Z,45.90
2018-05-27T05:59:43.205Z,45.80
2018-05-27T06:00:16.001Z,45.70
2018-05-27T06:00:48.026Z,45.70
2018-05-27T06:01:20.832Z,45.50
2018-05-27T06:01:52.882Z,45.50
2018-05-27T06:02:24.910Z,45.50
2018-05-27T06:02:56.920Z,45.50
2018-05-27T06:03:28.970Z,45.50
2018-05-27T06:04:00.997Z,45.30
2018-05-27T06:04:33.032Z,45.40
2018-05-27T06:05:05.041Z,45.50
2018-05-27T06:05:37.826Z,45.60
2018-05-27T06:06:09.859Z,45.60
2018-05-27T06:06:42.670Z,45.70
2018-05-27T06:07:14.703Z,45.70
2018-05-27T06:07:47.484Z,45.60
2018-05-27T06:08:19.512Z,45.60
2018-05-27T06:08:52.287Z,46.40
2018-05-27T06:09:24.322Z,45.60
2018-05-27T06:09:57.107Z,45.70
2018-05-27T06:10:29.139Z,45.60
2018-05-27T06:11:01.942Z,45.70
2018-05-27T06:11:33.968Z,45.70
2018-05-27T06:12:06.768Z,45.80
2018-05-27T06:12:38.803Z,45.70
2018-05-27T06:13:10.840Z,45.80
2018-05-27T06:13:43.614Z,45.80
2018-05-27T06:14:15.659Z,45.80
2018-05-27T06:14:48.456Z,45.80
2018-05-27T06:15:20.503Z,45.80
2018-05-27T06:15:52.523Z,45.80
2018-05-27T06:16:25.307Z,45.90
2018-05-27T06:16:57.345Z,45.90
2018-05-27T06:17:29.375Z,45.90
2018-05-27T06:18:01.401Z,45.90
2018-05-27T06:18:33.426Z,45.90
2018-05-27T06:19:05.455Z,45.90
2018-05-27T06:19:38.287Z,46.00
2018-05-27T06:20:10.293Z,45.90
2018-05-27T06:20:42.315Z,46.00
2018-05-27T06:21:14.364Z,46.00
2018-05-27T06:21:46.387Z,46.00
2018-05-27T06:22:18.430Z,46.00
2018-05-27T06:22:50.453Z,46.10
2018-05-27T06:23:22.488Z,46.10
2018-05-27T06:23:54.524Z,46.10
2018-05-27T06:24:26.560Z,46.00
2018-05-27T06:24:58.583Z,46.00
2018-05-27T06:25:30.616Z,46.00
2018-05-27T06:26:02.651Z,46.00
2018-05-27T06:26:34.674Z,46.00
2018-05-27T06:27:07.479Z,45.50
2018-05-27T06:27:39.532Z,46.10
2018-05-27T06:28:11.545Z,46.10
2018-05-27T06:28:43.561Z,46.10
2018-05-27T06:29:15.620Z,46.10
2018-05-27T06:29:47.626Z,46.00
2018-05-27T06:30:19.652Z,46.00
2018-05-27T06:30:51.673Z,46.00
2018-05-27T06:31:23.713Z,46.10
2018-05-27T06:31:55.727Z,46.00
2018-05-27T06:32:28.530Z,46.00
2018-05-27T06:33:00.577Z,46.00
2018-05-27T06:33:32.598Z,45.90
2018-05-27T06:34:05.424Z,45.90
2018-05-27T06:34:37.424Z,45.90
2018-05-27T06:35:09.447Z,45.90
2018-05-27T06:35:41.466Z,45.90
2018-05-27T06:36:13.528Z,45.90
2018-05-27T06:36:45.540Z,45.90
2018-05-27T06:37:17.564Z,45.80
2018-05-27T06:37:49.575Z,45.90
2018-05-27T06:38:21.664Z,45.80
2018-05-27T06:38:53.650Z,45.90
2018-05-27T06:39:25.709Z,45.90
2018-05-27T06:39:57.735Z,45.90
2018-05-27T06:40:29.759Z,45.90
2018-05-27T06:41:02.584Z,46.00
2018-05-27T06:41:34.622Z,45.90
2018-05-27T06:42:06.679Z,46.00
2018-05-27T06:42:38.694Z,46.00
2018-05-27T06:43:11.475Z,46.00
2018-05-27T06:43:43.493Z,45.90
2018-05-27T06:44:15.567Z,46.00
2018-05-27T06:44:48.346Z,46.10
2018-05-27T06:45:20.356Z,46.00
2018-05-27T06:45:52.396Z,46.00
2018-05-27T06:46:24.415Z,45.70
2018-05-27T06:46:56.447Z,45.70
2018-05-27T06:47:28.481Z,45.80
2018-05-27T06:48:01.275Z,45.80
2018-05-27T06:48:33.303Z,45.80
2018-05-27T06:49:06.126Z,45.70
2018-05-27T06:49:38.171Z,45.60
2018-05-27T06:50:10.193Z,45.60
2018-05-27T06:50:42.234Z,45.50
2018-05-27T06:51:15.032Z,45.40
2018-05-27T06:51:47.081Z,45.30
2018-05-27T06:52:19.141Z,45.30
2018-05-27T06:52:51.168Z,45.50
2018-05-27T06:53:23.963Z,45.40
2018-05-27T06:53:55.999Z,45.30
2018-05-27T06:54:28.042Z,45.30
2018-05-27T06:55:00.073Z,45.40